Jelgava, Latvia
Current Conditions -  °F | °C
As of 5:20 PM on Saturday 22 Nov 2014 (Local Time) from EVRA Reporting Station
Moderate Fog Moderate Fog  
Wind Chill: 29°   Ceiling: 100
Heat Index: 34°   Visibility: 0.31mi
Dew Point: 34°   Wind: 6mph
Humidity: 100%   Direction: 170°S
Pressure: 30.33"   Gusts: NA
Location:  56.65°N, 23.71°E
Report Text: EVRA 221420Z 17005KT 0500 R18/0600N FG VV001 01/01 Q1027 R18/290195 NOSIG
Loading
Personal Weather Stations






























Interactive Weather Map New forecast layout! Learn more

10-Day Weather Forecast

Advertisements
Track Severe Weather on mobile